sensor_id;sensor_type;location;lat;lon;timestamp;P1;durP1;ratioP1;P2;durP2;ratioP2
15155;SDS011;7678;50.058;8.306;2024-03-08T00:01:10;23.20;;;16.97;;
15155;SDS011;7678;50.058;8.306;2024-03-08T00:03:39;21.37;;;17.00;;
15155;SDS011;7678;50.058;8.306;2024-03-08T00:06:07;24.60;;;16.87;;
15155;SDS011;7678;50.058;8.306;2024-03-08T00:08:37;21.17;;;16.93;;
15155;SDS011;7678;50.058;8.306;2024-03-08T00:11:05;21.60;;;16.97;;
15155;SDS011;7678;50.058;8.306;2024-03-08T00:13:34;23.77;;;16.23;;
15155;SDS011;7678;50.058;8.306;2024-03-08T00:16:03;22.57;;;17.87;;
15155;SDS011;7678;50.058;8.306;2024-03-08T00:18:31;23.83;;;17.67;;
15155;SDS011;7678;50.058;8.306;2024-03-08T00:21:00;21.77;;;17.13;;
15155;SDS011;7678;50.058;8.306;2024-03-08T00:23:28;22.20;;;17.70;;
15155;SDS011;7678;50.058;8.306;2024-03-08T00:25:57;19.47;;;16.07;;
15155;SDS011;7678;50.058;8.306;2024-03-08T00:28:26;22.40;;;17.07;;
15155;SDS011;7678;50.058;8.306;2024-03-08T00:30:54;20.00;;;16.20;;
15155;SDS011;7678;50.058;8.306;2024-03-08T00:33:22;25.37;;;18.00;;
15155;SDS011;7678;50.058;8.306;2024-03-08T00:35:50;26.20;;;16.23;;
15155;SDS011;7678;50.058;8.306;2024-03-08T00:38:19;25.33;;;18.10;;
15155;SDS011;7678;50.058;8.306;2024-03-08T00:40:47;23.13;;;17.17;;
15155;SDS011;7678;50.058;8.306;2024-03-08T00:43:16;25.77;;;17.87;;
15155;SDS011;7678;50.058;8.306;2024-03-08T00:45:45;22.43;;;17.87;;
15155;SDS011;7678;50.058;8.306;2024-03-08T00:48:13;20.60;;;16.87;;
15155;SDS011;7678;50.058;8.306;2024-03-08T00:50:42;24.67;;;17.47;;
15155;SDS011;7678;50.058;8.306;2024-03-08T00:53:12;23.63;;;17.63;;
15155;SDS011;7678;50.058;8.306;2024-03-08T00:55:40;25.60;;;17.37;;
15155;SDS011;7678;50.058;8.306;2024-03-08T00:58:08;20.50;;;17.77;;
15155;SDS011;7678;50.058;8.306;2024-03-08T01:00:38;23.03;;;17.47;;
15155;SDS011;7678;50.058;8.306;2024-03-08T01:03:06;23.33;;;18.03;;
15155;SDS011;7678;50.058;8.306;2024-03-08T01:05:34;22.90;;;17.77;;
15155;SDS011;7678;50.058;8.306;2024-03-08T01:08:02;22.50;;;17.53;;
15155;SDS011;7678;50.058;8.306;2024-03-08T01:10:31;23.30;;;17.53;;
15155;SDS011;7678;50.058;8.306;2024-03-08T01:12:59;23.00;;;18.37;;
15155;SDS011;7678;50.058;8.306;2024-03-08T01:15:27;22.87;;;17.57;;
15155;SDS011;7678;50.058;8.306;2024-03-08T01:17:56;23.10;;;18.33;;
15155;SDS011;7678;50.058;8.306;2024-03-08T01:20:27;21.80;;;17.80;;
15155;SDS011;7678;50.058;8.306;2024-03-08T01:22:56;25.67;;;17.97;;
15155;SDS011;7678;50.058;8.306;2024-03-08T01:25:24;21.77;;;17.90;;
15155;SDS011;7678;50.058;8.306;2024-03-08T01:27:52;23.30;;;17.70;;
15155;SDS011;7678;50.058;8.306;2024-03-08T01:30:20;22.53;;;18.00;;
15155;SDS011;7678;50.058;8.306;2024-03-08T01:32:49;26.67;;;18.60;;
15155;SDS011;7678;50.058;8.306;2024-03-08T01:35:19;23.37;;;18.90;;
15155;SDS011;7678;50.058;8.306;2024-03-08T01:37:48;22.70;;;18.83;;
15155;SDS011;7678;50.058;8.306;2024-03-08T01:40:16;23.83;;;18.90;;
15155;SDS011;7678;50.058;8.306;2024-03-08T01:42:45;23.57;;;18.30;;
15155;SDS011;7678;50.058;8.306;2024-03-08T01:45:14;25.33;;;19.50;;
15155;SDS011;7678;50.058;8.306;2024-03-08T01:47:43;27.50;;;18.90;;
15155;SDS011;7678;50.058;8.306;2024-03-08T01:50:11;24.63;;;19.13;;
15155;SDS011;7678;50.058;8.306;2024-03-08T01:52:41;24.13;;;18.77;;
15155;SDS011;7678;50.058;8.306;2024-03-08T01:55:10;21.60;;;18.83;;
15155;SDS011;7678;50.058;8.306;2024-03-08T01:57:42;25.73;;;18.60;;
15155;SDS011;7678;50.058;8.306;2024-03-08T02:00:11;26.50;;;18.03;;
15155;SDS011;7678;50.058;8.306;2024-03-08T02:02:43;25.10;;;19.07;;
15155;SDS011;7678;50.058;8.306;2024-03-08T02:05:13;25.53;;;19.80;;
15155;SDS011;7678;50.058;8.306;2024-03-08T02:07:43;23.97;;;19.63;;
15155;SDS011;7678;50.058;8.306;2024-03-08T02:10:13;23.23;;;18.30;;
15155;SDS011;7678;50.058;8.306;2024-03-08T02:12:41;26.30;;;20.43;;
15155;SDS011;7678;50.058;8.306;2024-03-08T02:15:09;24.77;;;19.03;;
15155;SDS011;7678;50.058;8.306;2024-03-08T02:17:38;24.67;;;18.60;;
15155;SDS011;7678;50.058;8.306;2024-03-08T02:20:06;24.10;;;19.00;;
15155;SDS011;7678;50.058;8.306;2024-03-08T02:22:41;24.13;;;19.03;;
15155;SDS011;7678;50.058;8.306;2024-03-08T02:25:09;23.63;;;19.30;;
15155;SDS011;7678;50.058;8.306;2024-03-08T02:27:38;23.73;;;20.50;;
15155;SDS011;7678;50.058;8.306;2024-03-08T02:30:07;25.27;;;19.90;;
15155;SDS011;7678;50.058;8.306;2024-03-08T02:32:39;22.77;;;19.20;;
15155;SDS011;7678;50.058;8.306;2024-03-08T02:35:07;23.37;;;19.57;;
15155;SDS011;7678;50.058;8.306;2024-03-08T02:37:36;28.50;;;20.87;;
15155;SDS011;7678;50.058;8.306;2024-03-08T02:40:06;28.13;;;20.07;;
15155;SDS011;7678;50.058;8.306;2024-03-08T02:42:35;26.33;;;19.37;;
15155;SDS011;7678;50.058;8.306;2024-03-08T02:45:03;27.90;;;20.77;;
15155;SDS011;7678;50.058;8.306;2024-03-08T02:47:33;27.57;;;20.37;;
15155;SDS011;7678;50.058;8.306;2024-03-08T02:50:01;25.33;;;20.10;;
15155;SDS011;7678;50.058;8.306;2024-03-08T02:52:29;25.83;;;20.43;;
15155;SDS011;7678;50.058;8.306;2024-03-08T02:54:58;25.10;;;19.67;;
15155;SDS011;7678;50.058;8.306;2024-03-08T02:57:28;27.13;;;20.13;;
15155;SDS011;7678;50.058;8.306;2024-03-08T02:59:56;26.67;;;20.50;;
15155;SDS011;7678;50.058;8.306;2024-03-08T03:02:26;25.37;;;20.13;;
15155;SDS011;7678;50.058;8.306;2024-03-08T03:04:54;25.87;;;19.10;;
15155;SDS011;7678;50.058;8.306;2024-03-08T03:07:22;24.83;;;20.30;;
15155;SDS011;7678;50.058;8.306;2024-03-08T03:09:50;26.47;;;20.90;;
15155;SDS011;7678;50.058;8.306;2024-03-08T03:12:18;25.80;;;20.67;;
15155;SDS011;7678;50.058;8.306;2024-03-08T03:14:48;25.43;;;19.90;;
15155;SDS011;7678;50.058;8.306;2024-03-08T03:17:16;25.67;;;20.73;;
15155;SDS011;7678;50.058;8.306;2024-03-08T03:19:44;26.67;;;20.23;;
15155;SDS011;7678;50.058;8.306;2024-03-08T03:22:12;27.13;;;21.83;;
15155;SDS011;7678;50.058;8.306;2024-03-08T03:24:42;27.63;;;21.77;;
15155;SDS011;7678;50.058;8.306;2024-03-08T03:27:10;29.13;;;20.27;;
15155;SDS011;7678;50.058;8.306;2024-03-08T03:29:38;26.07;;;21.43;;
15155;SDS011;7678;50.058;8.306;2024-03-08T03:32:10;27.07;;;20.47;;
15155;SDS011;7678;50.058;8.306;2024-03-08T03:34:38;27.13;;;22.63;;
15155;SDS011;7678;50.058;8.306;2024-03-08T03:37:06;27.07;;;21.73;;
15155;SDS011;7678;50.058;8.306;2024-03-08T03:39:35;28.07;;;22.10;;
15155;SDS011;7678;50.058;8.306;2024-03-08T03:42:14;30.70;;;22.97;;
15155;SDS011;7678;50.058;8.306;2024-03-08T03:44:44;27.07;;;21.33;;
15155;SDS011;7678;50.058;8.306;2024-03-08T03:47:14;31.07;;;22.03;;
15155;SDS011;7678;50.058;8.306;2024-03-08T03:49:42;27.63;;;21.47;;
15155;SDS011;7678;50.058;8.306;2024-03-08T03:52:11;27.90;;;21.30;;
15155;SDS011;7678;50.058;8.306;2024-03-08T03:54:39;29.27;;;22.70;;
15155;SDS011;7678;50.058;8.306;2024-03-08T03:57:07;31.17;;;22.13;;
15155;SDS011;7678;50.058;8.306;2024-03-08T03:59:35;31.07;;;22.83;;
15155;SDS011;7678;50.058;8.306;2024-03-08T04:02:04;29.57;;;22.70;;
15155;SDS011;7678;50.058;8.306;2024-03-08T04:04:33;30.17;;;23.10;;
15155;SDS011;7678;50.058;8.306;2024-03-08T04:07:01;35.23;;;24.63;;
15155;SDS011;7678;50.058;8.306;2024-03-08T04:09:30;27.63;;;23.20;;
15155;SDS011;7678;50.058;8.306;2024-03-08T04:11:59;33.03;;;22.80;;
15155;SDS011;7678;50.058;8.306;2024-03-08T04:14:28;29.43;;;23.93;;
15155;SDS011;7678;50.058;8.306;2024-03-08T04:16:56;32.03;;;23.83;;
15155;SDS011;7678;50.058;8.306;2024-03-08T04:19:24;28.27;;;22.30;;
15155;SDS011;7678;50.058;8.306;2024-03-08T04:21:55;29.80;;;22.63;;
15155;SDS011;7678;50.058;8.306;2024-03-08T04:24:24;29.20;;;22.07;;
15155;SDS011;7678;50.058;8.306;2024-03-08T04:26:52;30.53;;;23.83;;
15155;SDS011;7678;50.058;8.306;2024-03-08T04:29:21;32.13;;;23.50;;
15155;SDS011;7678;50.058;8.306;2024-03-08T04:31:49;32.87;;;23.00;;
15155;SDS011;7678;50.058;8.306;2024-03-08T04:34:20;27.97;;;22.73;;
15155;SDS011;7678;50.058;8.306;2024-03-08T04:36:51;29.93;;;23.10;;
15155;SDS011;7678;50.058;8.306;2024-03-08T04:39:21;28.20;;;22.57;;
15155;SDS011;7678;50.058;8.306;2024-03-08T04:41:49;31.47;;;22.90;;
15155;SDS011;7678;50.058;8.306;2024-03-08T04:44:17;29.90;;;22.90;;
15155;SDS011;7678;50.058;8.306;2024-03-08T04:46:45;30.63;;;23.77;;
15155;SDS011;7678;50.058;8.306;2024-03-08T04:49:14;31.27;;;24.07;;
15155;SDS011;7678;50.058;8.306;2024-03-08T04:51:42;31.97;;;23.93;;
15155;SDS011;7678;50.058;8.306;2024-03-08T04:54:12;28.30;;;23.63;;
15155;SDS011;7678;50.058;8.306;2024-03-08T04:56:43;33.63;;;23.87;;
15155;SDS011;7678;50.058;8.306;2024-03-08T04:59:12;30.47;;;24.30;;
15155;SDS011;7678;50.058;8.306;2024-03-08T05:01:40;30.33;;;24.50;;
15155;SDS011;7678;50.058;8.306;2024-03-08T05:04:09;36.27;;;25.20;;
15155;SDS011;7678;50.058;8.306;2024-03-08T05:06:37;32.73;;;24.43;;
15155;SDS011;7678;50.058;8.306;2024-03-08T05:09:06;30.77;;;24.97;;
15155;SDS011;7678;50.058;8.306;2024-03-08T05:11:40;35.30;;;25.00;;
15155;SDS011;7678;50.058;8.306;2024-03-08T05:14:11;31.53;;;24.53;;
15155;SDS011;7678;50.058;8.306;2024-03-08T05:16:43;32.87;;;24.80;;
15155;SDS011;7678;50.058;8.306;2024-03-08T05:19:15;30.13;;;23.80;;
15155;SDS011;7678;50.058;8.306;2024-03-08T05:21:44;33.47;;;24.33;;
15155;SDS011;7678;50.058;8.306;2024-03-08T05:24:13;32.37;;;25.07;;
15155;SDS011;7678;50.058;8.306;2024-03-08T05:26:42;29.63;;;24.57;;
15155;SDS011;7678;50.058;8.306;2024-03-08T05:29:12;32.57;;;24.90;;
15155;SDS011;7678;50.058;8.306;2024-03-08T05:31:43;32.80;;;26.40;;
15155;SDS011;7678;50.058;8.306;2024-03-08T05:34:14;30.10;;;24.33;;
15155;SDS011;7678;50.058;8.306;2024-03-08T05:36:42;33.40;;;25.73;;
15155;SDS011;7678;50.058;8.306;2024-03-08T05:39:11;32.77;;;26.40;;
15155;SDS011;7678;50.058;8.306;2024-03-08T05:41:49;34.53;;;25.43;;
15155;SDS011;7678;50.058;8.306;2024-03-08T05:44:19;33.00;;;25.30;;
15155;SDS011;7678;50.058;8.306;2024-03-08T05:46:47;35.40;;;26.23;;
15155;SDS011;7678;50.058;8.306;2024-03-08T05:49:17;32.53;;;25.97;;
15155;SDS011;7678;50.058;8.306;2024-03-08T05:51:45;30.97;;;24.40;;
15155;SDS011;7678;50.058;8.306;2024-03-08T05:54:14;33.43;;;25.33;;
15155;SDS011;7678;50.058;8.306;2024-03-08T05:56:46;32.10;;;26.03;;
15155;SDS011;7678;50.058;8.306;2024-03-08T05:59:14;34.17;;;25.67;;
15155;SDS011;7678;50.058;8.306;2024-03-08T06:01:45;37.20;;;24.97;;
15155;SDS011;7678;50.058;8.306;2024-03-08T06:04:13;33.47;;;26.50;;
15155;SDS011;7678;50.058;8.306;2024-03-08T06:06:41;31.63;;;25.17;;
15155;SDS011;7678;50.058;8.306;2024-03-08T06:09:09;33.07;;;26.40;;
15155;SDS011;7678;50.058;8.306;2024-03-08T06:11:43;32.53;;;26.47;;
15155;SDS011;7678;50.058;8.306;2024-03-08T06:14:11;31.57;;;26.23;;
15155;SDS011;7678;50.058;8.306;2024-03-08T06:16:39;31.57;;;24.57;;
15155;SDS011;7678;50.058;8.306;2024-03-08T06:19:09;30.23;;;24.60;;
15155;SDS011;7678;50.058;8.306;2024-03-08T06:24:31;34.90;;;26.33;;
15155;SDS011;7678;50.058;8.306;2024-03-08T06:26:59;33.90;;;25.80;;
15155;SDS011;7678;50.058;8.306;2024-03-08T06:29:28;36.47;;;26.80;;
15155;SDS011;7678;50.058;8.306;2024-03-08T06:31:56;34.30;;;26.37;;
15155;SDS011;7678;50.058;8.306;2024-03-08T06:34:26;35.33;;;26.90;;
15155;SDS011;7678;50.058;8.306;2024-03-08T06:36:54;34.20;;;26.03;;
15155;SDS011;7678;50.058;8.306;2024-03-08T06:39:27;33.33;;;25.33;;
15155;SDS011;7678;50.058;8.306;2024-03-08T06:41:58;34.07;;;24.80;;
15155;SDS011;7678;50.058;8.306;2024-03-08T06:44:26;36.03;;;26.53;;
15155;SDS011;7678;50.058;8.306;2024-03-08T06:46:54;32.67;;;25.27;;
15155;SDS011;7678;50.058;8.306;2024-03-08T06:49:27;32.80;;;25.13;;
15155;SDS011;7678;50.058;8.306;2024-03-08T06:51:55;31.83;;;24.53;;
15155;SDS011;7678;50.058;8.306;2024-03-08T06:54:24;29.97;;;24.20;;
15155;SDS011;7678;50.058;8.306;2024-03-08T06:56:52;32.53;;;25.63;;
15155;SDS011;7678;50.058;8.306;2024-03-08T06:59:20;30.60;;;23.90;;
15155;SDS011;7678;50.058;8.306;2024-03-08T07:01:48;35.53;;;25.57;;
15155;SDS011;7678;50.058;8.306;2024-03-08T07:04:23;32.47;;;24.73;;
15155;SDS011;7678;50.058;8.306;2024-03-08T07:06:57;31.57;;;24.07;;
15155;SDS011;7678;50.058;8.306;2024-03-08T07:09:25;32.20;;;24.70;;
15155;SDS011;7678;50.058;8.306;2024-03-08T07:11:53;32.47;;;25.20;;
15155;SDS011;7678;50.058;8.306;2024-03-08T07:14:22;31.40;;;23.27;;
15155;SDS011;7678;50.058;8.306;2024-03-08T07:16:50;28.00;;;23.43;;
15155;SDS011;7678;50.058;8.306;2024-03-08T07:19:19;32.70;;;23.97;;
15155;SDS011;7678;50.058;8.306;2024-03-08T07:21:47;35.27;;;24.20;;
15155;SDS011;7678;50.058;8.306;2024-03-08T07:24:17;31.80;;;23.90;;
15155;SDS011;7678;50.058;8.306;2024-03-08T07:26:59;30.47;;;23.73;;
15155;SDS011;7678;50.058;8.306;2024-03-08T07:29:27;31.97;;;23.13;;
15155;SDS011;7678;50.058;8.306;2024-03-08T07:31:56;31.00;;;22.97;;
15155;SDS011;7678;50.058;8.306;2024-03-08T07:34:38;31.97;;;22.70;;
15155;SDS011;7678;50.058;8.306;2024-03-08T07:37:07;29.87;;;22.70;;
15155;SDS011;7678;50.058;8.306;2024-03-08T07:39:39;31.37;;;23.10;;
15155;SDS011;7678;50.058;8.306;2024-03-08T07:42:07;28.70;;;22.37;;
15155;SDS011;7678;50.058;8.306;2024-03-08T07:44:36;29.53;;;22.77;;
15155;SDS011;7678;50.058;8.306;2024-03-08T07:47:05;30.33;;;22.30;;
15155;SDS011;7678;50.058;8.306;2024-03-08T07:49:36;29.07;;;23.50;;
15155;SDS011;7678;50.058;8.306;2024-03-08T07:52:04;29.53;;;21.83;;
15155;SDS011;7678;50.058;8.306;2024-03-08T07:54:33;30.93;;;22.27;;
15155;SDS011;7678;50.058;8.306;2024-03-08T07:57:04;27.80;;;22.33;;
15155;SDS011;7678;50.058;8.306;2024-03-08T07:59:34;28.83;;;21.27;;
15155;SDS011;7678;50.058;8.306;2024-03-08T08:02:02;30.67;;;22.13;;
15155;SDS011;7678;50.058;8.306;2024-03-08T08:04:30;30.40;;;21.60;;
15155;SDS011;7678;50.058;8.306;2024-03-08T08:06:59;28.57;;;22.17;;
15155;SDS011;7678;50.058;8.306;2024-03-08T08:09:27;28.27;;;21.23;;
15155;SDS011;7678;50.058;8.306;2024-03-08T08:12:01;26.30;;;20.90;;
15155;SDS011;7678;50.058;8.306;2024-03-08T08:14:31;29.17;;;21.63;;
15155;SDS011;7678;50.058;8.306;2024-03-08T08:16:59;28.87;;;20.57;;
15155;SDS011;7678;50.058;8.306;2024-03-08T08:19:30;30.23;;;22.40;;
15155;SDS011;7678;50.058;8.306;2024-03-08T08:21:59;25.87;;;19.33;;
15155;SDS011;7678;50.058;8.306;2024-03-08T08:24:28;28.00;;;19.67;;
15155;SDS011;7678;50.058;8.306;2024-03-08T08:26:56;32.10;;;20.97;;
15155;SDS011;7678;50.058;8.306;2024-03-08T08:29:25;26.43;;;20.23;;
15155;SDS011;7678;50.058;8.306;2024-03-08T08:31:54;29.93;;;21.00;;
15155;SDS011;7678;50.058;8.306;2024-03-08T08:34:27;30.23;;;21.83;;
15155;SDS011;7678;50.058;8.306;2024-03-08T08:36:56;28.63;;;20.20;;
15155;SDS011;7678;50.058;8.306;2024-03-08T08:39:25;24.63;;;18.93;;
15155;SDS011;7678;50.058;8.306;2024-03-08T08:41:54;27.13;;;21.43;;
15155;SDS011;7678;50.058;8.306;2024-03-08T08:44:22;28.37;;;20.60;;
15155;SDS011;7678;50.058;8.306;2024-03-08T08:46:52;32.13;;;20.97;;
15155;SDS011;7678;50.058;8.306;2024-03-08T08:49:35;27.77;;;19.37;;
15155;SDS011;7678;50.058;8.306;2024-03-08T08:52:04;28.97;;;19.93;;
15155;SDS011;7678;50.058;8.306;2024-03-08T08:54:42;27.20;;;19.80;;
15155;SDS011;7678;50.058;8.306;2024-03-08T08:57:15;28.27;;;20.97;;
15155;SDS011;7678;50.058;8.306;2024-03-08T08:59:44;27.80;;;20.13;;
15155;SDS011;7678;50.058;8.306;2024-03-08T09:02:13;25.80;;;19.73;;
15155;SDS011;7678;50.058;8.306;2024-03-08T09:04:44;37.73;;;21.13;;
15155;SDS011;7678;50.058;8.306;2024-03-08T09:07:14;26.60;;;19.33;;
15155;SDS011;7678;50.058;8.306;2024-03-08T09:09:44;30.67;;;20.73;;
15155;SDS011;7678;50.058;8.306;2024-03-08T09:12:12;27.93;;;19.67;;
15155;SDS011;7678;50.058;8.306;2024-03-08T09:14:40;25.93;;;20.10;;
15155;SDS011;7678;50.058;8.306;2024-03-08T09:17:08;25.67;;;18.97;;
15155;SDS011;7678;50.058;8.306;2024-03-08T09:19:38;24.93;;;19.33;;
15155;SDS011;7678;50.058;8.306;2024-03-08T09:22:07;27.53;;;20.10;;
15155;SDS011;7678;50.058;8.306;2024-03-08T09:24:35;24.17;;;18.37;;
15155;SDS011;7678;50.058;8.306;2024-03-08T09:27:04;24.07;;;19.27;;
15155;SDS011;7678;50.058;8.306;2024-03-08T09:29:32;26.50;;;18.97;;
15155;SDS011;7678;50.058;8.306;2024-03-08T09:32:02;29.87;;;19.33;;
15155;SDS011;7678;50.058;8.306;2024-03-08T09:34:31;26.27;;;19.07;;
15155;SDS011;7678;50.058;8.306;2024-03-08T09:37:05;26.97;;;18.90;;
15155;SDS011;7678;50.058;8.306;2024-03-08T09:39:35;24.93;;;18.00;;
15155;SDS011;7678;50.058;8.306;2024-03-08T09:42:04;26.17;;;18.87;;
15155;SDS011;7678;50.058;8.306;2024-03-08T09:44:33;24.60;;;18.17;;
15155;SDS011;7678;50.058;8.306;2024-03-08T09:47:02;26.07;;;19.73;;
15155;SDS011;7678;50.058;8.306;2024-03-08T09:49:34;25.83;;;18.43;;
15155;SDS011;7678;50.058;8.306;2024-03-08T09:52:06;24.47;;;18.93;;
15155;SDS011;7678;50.058;8.306;2024-03-08T09:54:36;31.17;;;18.80;;
15155;SDS011;7678;50.058;8.306;2024-03-08T09:57:05;25.13;;;17.90;;
15155;SDS011;7678;50.058;8.306;2024-03-08T09:59:38;21.73;;;17.33;;
15155;SDS011;7678;50.058;8.306;2024-03-08T10:02:14;26.07;;;17.57;;
15155;SDS011;7678;50.058;8.306;2024-03-08T10:04:45;23.00;;;17.47;;
15155;SDS011;7678;50.058;8.306;2024-03-08T10:07:17;25.33;;;17.67;;
15155;SDS011;7678;50.058;8.306;2024-03-08T10:09:46;25.07;;;18.30;;
15155;SDS011;7678;50.058;8.306;2024-03-08T10:12:17;22.20;;;17.47;;
15155;SDS011;7678;50.058;8.306;2024-03-08T10:14:46;25.03;;;17.73;;
15155;SDS011;7678;50.058;8.306;2024-03-08T10:17:14;24.67;;;16.60;;
15155;SDS011;7678;50.058;8.306;2024-03-08T10:19:50;23.20;;;17.13;;
15155;SDS011;7678;50.058;8.306;2024-03-08T10:22:21;21.27;;;15.43;;
15155;SDS011;7678;50.058;8.306;2024-03-08T10:24:49;18.37;;;14.83;;
15155;SDS011;7678;50.058;8.306;2024-03-08T10:27:17;23.30;;;15.30;;
15155;SDS011;7678;50.058;8.306;2024-03-08T10:29:47;22.20;;;15.70;;
15155;SDS011;7678;50.058;8.306;2024-03-08T10:32:18;17.77;;;14.33;;
15155;SDS011;7678;50.058;8.306;2024-03-08T10:34:46;19.27;;;15.23;;
15155;SDS011;7678;50.058;8.306;2024-03-08T10:37:17;20.37;;;15.37;;
15155;SDS011;7678;50.058;8.306;2024-03-08T10:39:53;19.57;;;14.77;;
15155;SDS011;7678;50.058;8.306;2024-03-08T10:43:23;19.40;;;14.60;;
15155;SDS011;7678;50.058;8.306;2024-03-08T10:45:58;19.93;;;13.97;;
15155;SDS011;7678;50.058;8.306;2024-03-08T10:48:41;17.97;;;14.20;;
15155;SDS011;7678;50.058;8.306;2024-03-08T10:51:12;20.03;;;13.93;;
15155;SDS011;7678;50.058;8.306;2024-03-08T10:53:43;20.67;;;15.30;;
15155;SDS011;7678;50.058;8.306;2024-03-08T10:56:13;22.43;;;14.97;;
15155;SDS011;7678;50.058;8.306;2024-03-08T10:58:43;21.20;;;14.20;;
15155;SDS011;7678;50.058;8.306;2024-03-08T11:01:20;19.80;;;14.47;;
15155;SDS011;7678;50.058;8.306;2024-03-08T11:03:57;18.77;;;14.33;;
15155;SDS011;7678;50.058;8.306;2024-03-08T11:06:30;17.13;;;13.37;;
15155;SDS011;7678;50.058;8.306;2024-03-08T11:09:12;17.67;;;13.23;;
15155;SDS011;7678;50.058;8.306;2024-03-08T11:12:18;17.03;;;13.43;;
15155;SDS011;7678;50.058;8.306;2024-03-08T11:14:48;24.73;;;12.93;;
15155;SDS011;7678;50.058;8.306;2024-03-08T11:17:20;19.77;;;13.30;;
15155;SDS011;7678;50.058;8.306;2024-03-08T11:19:49;18.80;;;13.30;;
15155;SDS011;7678;50.058;8.306;2024-03-08T11:22:22;19.10;;;13.90;;
15155;SDS011;7678;50.058;8.306;2024-03-08T11:25:00;18.03;;;13.13;;
15155;SDS011;7678;50.058;8.306;2024-03-08T11:27:35;17.57;;;13.57;;
15155;SDS011;7678;50.058;8.306;2024-03-08T11:30:04;18.97;;;13.20;;
15155;SDS011;7678;50.058;8.306;2024-03-08T11:32:44;17.93;;;12.90;;
15155;SDS011;7678;50.058;8.306;2024-03-08T11:35:18;16.40;;;13.20;;
15155;SDS011;7678;50.058;8.306;2024-03-08T11:37:47;20.27;;;13.47;;
15155;SDS011;7678;50.058;8.306;2024-03-08T11:40:19;18.10;;;12.97;;
15155;SDS011;7678;50.058;8.306;2024-03-08T11:42:49;17.17;;;13.27;;
15155;SDS011;7678;50.058;8.306;2024-03-08T11:45:20;16.33;;;13.30;;
15155;SDS011;7678;50.058;8.306;2024-03-08T11:47:49;17.10;;;13.17;;
15155;SDS011;7678;50.058;8.306;2024-03-08T11:50:24;19.97;;;13.30;;
15155;SDS011;7678;50.058;8.306;2024-03-08T11:52:52;16.00;;;12.40;;
15155;SDS011;7678;50.058;8.306;2024-03-08T11:55:22;18.37;;;13.00;;
15155;SDS011;7678;50.058;8.306;2024-03-08T11:57:59;18.67;;;12.23;;
15155;SDS011;7678;50.058;8.306;2024-03-08T12:00:28;15.50;;;11.80;;
15155;SDS011;7678;50.058;8.306;2024-03-08T12:03:02;15.87;;;11.83;;
15155;SDS011;7678;50.058;8.306;2024-03-08T12:05:31;16.73;;;11.70;;
15155;SDS011;7678;50.058;8.306;2024-03-08T12:08:00;15.10;;;11.17;;
15155;SDS011;7678;50.058;8.306;2024-03-08T12:10:33;15.90;;;9.93;;
15155;SDS011;7678;50.058;8.306;2024-03-08T12:13:02;14.87;;;11.20;;
15155;SDS011;7678;50.058;8.306;2024-03-08T12:15:39;18.83;;;11.23;;
15155;SDS011;7678;50.058;8.306;2024-03-08T12:18:10;15.80;;;10.93;;
15155;SDS011;7678;50.058;8.306;2024-03-08T12:20:39;17.63;;;11.80;;
15155;SDS011;7678;50.058;8.306;2024-03-08T12:23:14;15.80;;;11.47;;
15155;SDS011;7678;50.058;8.306;2024-03-08T12:25:45;18.23;;;11.20;;
15155;SDS011;7678;50.058;8.306;2024-03-08T12:28:14;15.20;;;10.80;;
15155;SDS011;7678;50.058;8.306;2024-03-08T12:30:47;17.57;;;12.53;;
15155;SDS011;7678;50.058;8.306;2024-03-08T12:33:18;15.40;;;12.07;;
15155;SDS011;7678;50.058;8.306;2024-03-08T12:35:51;14.87;;;11.60;;
15155;SDS011;7678;50.058;8.306;2024-03-08T12:38:27;16.57;;;11.20;;
15155;SDS011;7678;50.058;8.306;2024-03-08T12:41:00;14.50;;;11.10;;
15155;SDS011;7678;50.058;8.306;2024-03-08T12:43:29;16.23;;;12.10;;
15155;SDS011;7678;50.058;8.306;2024-03-08T12:45:58;16.80;;;11.53;;
15155;SDS011;7678;50.058;8.306;2024-03-08T12:48:27;17.20;;;12.47;;
15155;SDS011;7678;50.058;8.306;2024-03-08T12:50:56;14.10;;;10.77;;
15155;SDS011;7678;50.058;8.306;2024-03-08T12:53:24;15.77;;;11.63;;
15155;SDS011;7678;50.058;8.306;2024-03-08T12:55:56;17.07;;;12.93;;
15155;SDS011;7678;50.058;8.306;2024-03-08T12:58:26;19.40;;;13.70;;
15155;SDS011;7678;50.058;8.306;2024-03-08T13:00:56;18.40;;;12.27;;
15155;SDS011;7678;50.058;8.306;2024-03-08T13:03:34;19.70;;;12.57;;
15155;SDS011;7678;50.058;8.306;2024-03-08T13:06:03;17.57;;;11.43;;
15155;SDS011;7678;50.058;8.306;2024-03-08T13:08:34;20.70;;;12.70;;
15155;SDS011;7678;50.058;8.306;2024-03-08T13:11:05;18.77;;;11.87;;
15155;SDS011;7678;50.058;8.306;2024-03-08T13:13:36;19.73;;;12.83;;
15155;SDS011;7678;50.058;8.306;2024-03-08T13:16:06;20.80;;;12.37;;
15155;SDS011;7678;50.058;8.306;2024-03-08T13:18:35;16.87;;;12.40;;
15155;SDS011;7678;50.058;8.306;2024-03-08T13:21:04;16.13;;;12.90;;
15155;SDS011;7678;50.058;8.306;2024-03-08T13:23:32;18.70;;;12.67;;
15155;SDS011;7678;50.058;8.306;2024-03-08T13:26:05;23.30;;;13.20;;
15155;SDS011;7678;50.058;8.306;2024-03-08T13:28:35;20.00;;;13.13;;
15155;SDS011;7678;50.058;8.306;2024-03-08T13:31:04;16.40;;;13.07;;
15155;SDS011;7678;50.058;8.306;2024-03-08T13:33:36;19.63;;;14.00;;
15155;SDS011;7678;50.058;8.306;2024-03-08T13:36:08;15.37;;;12.70;;
15155;SDS011;7678;50.058;8.306;2024-03-08T13:38:42;19.83;;;13.80;;
15155;SDS011;7678;50.058;8.306;2024-03-08T13:41:10;19.63;;;13.40;;
15155;SDS011;7678;50.058;8.306;2024-03-08T13:43:42;19.63;;;14.30;;
15155;SDS011;7678;50.058;8.306;2024-03-08T13:46:16;19.23;;;13.73;;
15155;SDS011;7678;50.058;8.306;2024-03-08T13:48:45;17.70;;;13.67;;
15155;SDS011;7678;50.058;8.306;2024-03-08T13:51:14;17.67;;;12.83;;
15155;SDS011;7678;50.058;8.306;2024-03-08T13:53:43;14.90;;;11.90;;
15155;SDS011;7678;50.058;8.306;2024-03-08T13:56:11;19.43;;;12.80;;
15155;SDS011;7678;50.058;8.306;2024-03-08T13:58:43;18.53;;;13.07;;
15155;SDS011;7678;50.058;8.306;2024-03-08T14:01:11;15.77;;;12.47;;
15155;SDS011;7678;50.058;8.306;2024-03-08T14:03:41;15.93;;;12.00;;
15155;SDS011;7678;50.058;8.306;2024-03-08T14:06:09;17.23;;;13.33;;
15155;SDS011;7678;50.058;8.306;2024-03-08T14:08:49;19.37;;;13.27;;
15155;SDS011;7678;50.058;8.306;2024-03-08T14:11:17;20.07;;;12.83;;
15155;SDS011;7678;50.058;8.306;2024-03-08T14:13:48;16.97;;;12.13;;
15155;SDS011;7678;50.058;8.306;2024-03-08T14:16:18;17.43;;;13.00;;
15155;SDS011;7678;50.058;8.306;2024-03-08T14:18:47;14.57;;;11.90;;
15155;SDS011;7678;50.058;8.306;2024-03-08T14:21:16;16.63;;;12.60;;
15155;SDS011;7678;50.058;8.306;2024-03-08T14:23:45;17.17;;;12.73;;
15155;SDS011;7678;50.058;8.306;2024-03-08T14:26:16;16.60;;;12.07;;
15155;SDS011;7678;50.058;8.306;2024-03-08T14:28:49;15.90;;;12.20;;
15155;SDS011;7678;50.058;8.306;2024-03-08T14:31:21;16.37;;;11.87;;
15155;SDS011;7678;50.058;8.306;2024-03-08T14:33:52;16.50;;;12.13;;
15155;SDS011;7678;50.058;8.306;2024-03-08T14:36:22;17.53;;;11.87;;
15155;SDS011;7678;50.058;8.306;2024-03-08T14:38:52;17.90;;;12.70;;
15155;SDS011;7678;50.058;8.306;2024-03-08T14:41:20;19.87;;;12.37;;
15155;SDS011;7678;50.058;8.306;2024-03-08T14:43:50;15.30;;;11.97;;
15155;SDS011;7678;50.058;8.306;2024-03-08T14:46:21;14.90;;;11.67;;
15155;SDS011;7678;50.058;8.306;2024-03-08T14:48:54;16.27;;;12.03;;
15155;SDS011;7678;50.058;8.306;2024-03-08T14:51:23;16.83;;;12.20;;
15155;SDS011;7678;50.058;8.306;2024-03-08T14:53:58;16.53;;;12.90;;